Observation data for McLean on 02/16/2017      Previous  Date  Next       Current Mesonet Observations  Soil Data  Daily Summary Page  Observations in Plain Language
KMCS 160600Z 21009KT 04/M02 A3006 RMK A01 T00351023  RH  067%=      5-min Rain = 0
KMCS 160605Z 22009KT 04/M02 A3006 RMK A01 T00371023  RH  066%=      5-min Rain = 0
KMCS 160610Z 22009KT 04/M02 A3006 RMK A01 T00381023  RH  065%=      5-min Rain = 0
KMCS 160615Z 21009KT 04/M02 A3006 RMK A01 T00371023  RH  066%=      5-min Rain = 0
KMCS 160620Z 21008KT 03/M02 A3006 RMK A01 T00341023  RH  067%=      5-min Rain = 0
KMCS 160625Z 21008KT 03/M02 A3006 RMK A01 T00301022  RH  069%=      5-min Rain = 0
KMCS 160630Z 21007KT 03/M02 A3006 RMK A01 T00281022  RH  070%=      5-min Rain = 0
KMCS 160635Z 21007KT 03/M02 A3006 RMK A01 T00311021  RH  070%=      5-min Rain = 0
KMCS 160640Z 22008KT 04/M02 A3006 RMK A01 T00361022  RH  067%=      5-min Rain = 0
KMCS 160645Z 22009KT 04/M02 A3006 RMK A01 T00401022  RH  065%=      5-min Rain = 0
KMCS 160650Z 22011KT 04/M02 A3005 RMK A01 T00431023  RH  063%=      5-min Rain = 0
KMCS 160655Z 22011KT 04/M02 A3005 RMK A01 T00431024  RH  063%=      5-min Rain = 0
KMCS 160700Z 22010KT 04/M02 A3005 RMK A01 T00421024  RH  063%=      5-min Rain = 0
KMCS 160705Z 22010KT 04/M02 A3005 RMK A01 T00411023  RH  064%=      5-min Rain = 0
KMCS 160710Z 22010KT 04/M02 A3004 RMK A01 T00401024  RH  064%=      5-min Rain = 0
KMCS 160715Z 23009KT 04/M02 A3004 RMK A01 T00401024  RH  063%=      5-min Rain = 0
KMCS 160720Z 23009KT 04/M02 A3004 RMK A01 T00391024  RH  064%=      5-min Rain = 0
KMCS 160725Z 23009KT 04/M03 A3004 RMK A01 T00421025  RH  062%=      5-min Rain = 0
KMCS 160730Z 22009KT 04/M03 A3004 RMK A01 T00421025  RH  062%=      5-min Rain = 0
KMCS 160735Z 22008KT 04/M03 A3004 RMK A01 T00401025  RH  063%=      5-min Rain = 0
KMCS 160740Z 22009KT 04/M03 A3003 RMK A01 T00381025  RH  064%=      5-min Rain = 0
KMCS 160745Z 22009KT 04/M03 A3003 RMK A01 T00381025  RH  064%=      5-min Rain = 0
KMCS 160750Z 22009KT 04/M03 A3003 RMK A01 T00391025  RH  064%=      5-min Rain = 0
KMCS 160755Z 22009KT 04/M03 A3003 RMK A01 T00391026  RH  064%=      5-min Rain = 0
KMCS 160800Z 21009KT 04/M03 A3003 RMK A01 T00391025  RH  064%=      5-min Rain = 0
KMCS 160805Z 21009KT 04/M03 A3003 RMK A01 T00381025  RH  064%=      5-min Rain = 0
KMCS 160810Z 21009KT 04/M03 A3003 RMK A01 T00361025  RH  065%=      5-min Rain = 0
KMCS 160815Z 21009KT 04/M03 A3003 RMK A01 T00361025  RH  065%=      5-min Rain = 0
KMCS 160820Z 22009KT 03/M03 A3003 RMK A01 T00341025  RH  066%=      5-min Rain = 0
KMCS 160825Z 21009KT 04/M03 A3002 RMK A01 T00351025  RH  066%=      5-min Rain = 0
KMCS 160830Z 22009KT 03/M03 A3002 RMK A01 T00341025  RH  066%=      5-min Rain = 0
KMCS 160835Z 21009KT 03/M03 A3002 RMK A01 T00341025  RH  066%=      5-min Rain = 0
KMCS 160840Z 21009KT 03/M03 A3002 RMK A01 T00341025  RH  066%=      5-min Rain = 0
KMCS 160845Z 21009KT 03/M03 A3002 RMK A01 T00341025  RH  066%=      5-min Rain = 0
KMCS 160850Z 21008KT 03/M03 A3001 RMK A01 T00311025  RH  067%=      5-min Rain = 0
KMCS 160855Z 21008KT 03/M03 A3001 RMK A01 T00301026  RH  068%=      5-min Rain = 0
KMCS 160900Z 21008KT 03/M03 A3001 RMK A01 T00291026  RH  068%=      5-min Rain = 0
KMCS 160905Z 21009KT 03/M03 A3001 RMK A01 T00301025  RH  068%=      5-min Rain = 0
KMCS 160910Z 22009KT 03/M03 A3001 RMK A01 T00301025  RH  068%=      5-min Rain = 0
KMCS 160915Z 22009KT 03/M03 A30 RMK A01 T00311025  RH  068%=      5-min Rain = 0
KMCS 160920Z 22009KT 03/M03 A30 RMK A01 T00321025  RH  067%=      5-min Rain = 0
KMCS 160925Z 22008KT 03/M03 A30 RMK A01 T00331025  RH  067%=      5-min Rain = 0
KMCS 160930Z 22008KT 03/M03 A30 RMK A01 T00331026  RH  066%=      5-min Rain = 0
KMCS 160935Z 23008KT 03/M03 A30 RMK A01 T00331026  RH  066%=      5-min Rain = 0
KMCS 160940Z 23008KT 04/M03 A30 RMK A01 T00381025  RH  064%=      5-min Rain = 0
KMCS 160945Z 22008KT 04/M03 A30 RMK A01 T00361026  RH  065%=      5-min Rain = 0
KMCS 160950Z 22009KT 04/M03 A30 RMK A01 T00371025  RH  065%=      5-min Rain = 0
KMCS 160955Z 22008KT 04/M03 A30 RMK A01 T00351025  RH  065%=      5-min Rain = 0
KMCS 161000Z 22007KT 03/M03 A30 RMK A01 T00331026  RH  066%=      5-min Rain = 0
KMCS 161005Z 22008KT 03/M03 A30 RMK A01 T00311026  RH  067%=      5-min Rain = 0
KMCS 161010Z 22008KT 03/M03 A30 RMK A01 T00321026  RH  067%=      5-min Rain = 0
KMCS 161015Z 23008KT 03/M03 A30 RMK A01 T00331026  RH  066%=      5-min Rain = 0
KMCS 161020Z 24008KT 04/M03 A2999 RMK A01 T00351027  RH  065%=      5-min Rain = 0
KMCS 161025Z 24007KT 04/M03 A2999 RMK A01 T00361027  RH  064%=      5-min Rain = 0
KMCS 161030Z 24007KT 03/M03 A2999 RMK A01 T00331029  RH  065%=      5-min Rain = 0
KMCS 161035Z 24007KT 03/M03 A2999 RMK A01 T00281030  RH  066%=      5-min Rain = 0
KMCS 161040Z 24007KT 03/M03 A2999 RMK A01 T00281030  RH  066%=      5-min Rain = 0
KMCS 161045Z 25007KT 03/M03 A2999 RMK A01 T00291031  RH  065%=      5-min Rain = 0
KMCS 161050Z 26008KT 03/M03 A2999 RMK A01 T00301032  RH  065%=      5-min Rain = 0
KMCS 161055Z 26009KT 04/M03 A2998 RMK A01 T00391032  RH  061%=      5-min Rain = 0
KMCS 161100Z 26011KT 05/M03 A2998 RMK A01 T00471033  RH  057%=      5-min Rain = 0
KMCS 161105Z 26012KT 05/M03 A2998 RMK A01 T00471034  RH  057%=      5-min Rain = 0
KMCS 161110Z 26011KT 04/M03 A2998 RMK A01 T00441033  RH  058%=      5-min Rain = 0
KMCS 161115Z 26011KT 04/M03 A2997 RMK A01 T00441033  RH  058%=      5-min Rain = 0
KMCS 161120Z 27011KT 05/M03 A2997 RMK A01 T00461034  RH  057%=      5-min Rain = 0
KMCS 161125Z 27009KT 05/M03 A2997 RMK A01 T00461033  RH  057%=      5-min Rain = 0
KMCS 161130Z 27009KT 05/M03 A2997 RMK A01 T00471034  RH  056%=      5-min Rain = 0
KMCS 161135Z 27009KT 05/M03 A2997 RMK A01 T00511034  RH  055%=      5-min Rain = 0
KMCS 161140Z 26008KT 05/M03 A2998 RMK A01 T00501034  RH  055%=      5-min Rain = 0
KMCS 161145Z 26008KT 05/M03 A2998 RMK A01 T00491034  RH  056%=      5-min Rain = 0
KMCS 161150Z 26008KT 05/M03 A2998 RMK A01 T00501034  RH  055%=      5-min Rain = 0
KMCS 161155Z 27008KT 05/M03 A2998 RMK A01 T00501034  RH  055%=      5-min Rain = 0
KMCS 161200Z 26009KT 05/M03 A2998 RMK A01 T00491033  RH  056%=      5-min Rain = 0
KMCS 161205Z 26008KT 05/M03 A2998 RMK A01 T00471032  RH  057%=      5-min Rain = 0
KMCS 161210Z 27008KT 05/M03 A2997 RMK A01 T00471033  RH  057%=      5-min Rain = 0
KMCS 161215Z 26008KT 05/M03 A2997 RMK A01 T00481033  RH  057%=      5-min Rain = 0
KMCS 161220Z 26009KT 05/M03 A2997 RMK A01 T00461032  RH  058%=      5-min Rain = 0
KMCS 161225Z 26010KT 05/M03 A2997 RMK A01 T00481032  RH  057%=      5-min Rain = 0
KMCS 161230Z 26010KT 05/M03 A2997 RMK A01 T00481032  RH  057%=      5-min Rain = 0
KMCS 161235Z 25011KT 05/M03 A2997 RMK A01 T00471032  RH  057%=      5-min Rain = 0
KMCS 161240Z 25013KT 05/M03 A2997 RMK A01 T00491032  RH  056%=      5-min Rain = 0
KMCS 161245Z 26012KT 05/M03 A2997 RMK A01 T00501033  RH  056%=      5-min Rain = 0
KMCS 161250Z 26010KT 05/M03 A2997 RMK A01 T00471032  RH  057%=      5-min Rain = 0
KMCS 161255Z 27010KT 05/M03 A2997 RMK A01 T00481033  RH  056%=      5-min Rain = 0
KMCS 161300Z 27010KT 05/M03 A2997 RMK A01 T00501034  RH  055%=      5-min Rain = 0
KMCS 161305Z 26010KT 05/M03 A2997 RMK A01 T00491033  RH  056%=      5-min Rain = 0
KMCS 161310Z 26011KT 05/M03 A2997 RMK A01 T00481033  RH  056%=      5-min Rain = 0
KMCS 161315Z 25011KT 05/M03 A2997 RMK A01 T00481033  RH  056%=      5-min Rain = 0
KMCS 161320Z 26011KT 05/M03 A2996 RMK A01 T00501033  RH  056%=      5-min Rain = 0
KMCS 161325Z 26011KT 05/M03 A2996 RMK A01 T00521033  RH  055%=      5-min Rain = 0
KMCS 161330Z 26011KT 05/M03 A2996 RMK A01 T00541033  RH  054%=      5-min Rain = 0
KMCS 161335Z 26011KT 06/M03 A2996 RMK A01 T00551032  RH  054%=      5-min Rain = 0
KMCS 161340Z 26011KT 05/M03 A2996 RMK A01 T00531031  RH  055%=      5-min Rain = 0
KMCS 161345Z 26011KT 05/M03 A2996 RMK A01 T00541032  RH  055%=      5-min Rain = 0
KMCS 161350Z 26013KT 06/M03 A2997 RMK A01 T00591032  RH  053%=      5-min Rain = 0
KMCS 161355Z 26013KT 06/M03 A2997 RMK A01 T00621032  RH  052%=      5-min Rain = 0
KMCS 161400Z 26013KT 06/M03 A2997 RMK A01 T00641031  RH  051%=      5-min Rain = 0
KMCS 161405Z 26011KT 06/M03 A2997 RMK A01 T00641030  RH  052%=      5-min Rain = 0
KMCS 161410Z 26010KT 06/M03 A2997 RMK A01 T00621027  RH  053%=      5-min Rain = 0
KMCS 161415Z 26009KT 06/M03 A2997 RMK A01 T00641027  RH  053%=      5-min Rain = 0
KMCS 161420Z 26010KT 07/M03 A2997 RMK A01 T00671027  RH  051%=      5-min Rain = 0
KMCS 161425Z 26009KT 07/M03 A2997 RMK A01 T00681026  RH  052%=      5-min Rain = 0
KMCS 161430Z 26009KT 07/M03 A2997 RMK A01 T00721025  RH  051%=      5-min Rain = 0
KMCS 161435Z 26011KT 08/M03 A2997 RMK A01 T00751026  RH  049%=      5-min Rain = 0
KMCS 161440Z 26011KT 08/M03 A2997 RMK A01 T00761025  RH  049%=      5-min Rain = 0
KMCS 161445Z 26011KT 08/M02 A2997 RMK A01 T00771022  RH  050%=      5-min Rain = 0
KMCS 161450Z 26010KT 08/M02 A2997 RMK A01 T00781017  RH  051%=      5-min Rain = 0
KMCS 161455Z 26012KT 08/M02 A2996 RMK A01 T00801016  RH  051%=      5-min Rain = 0
KMCS 161500Z 26011KT 08/M01 A2996 RMK A01 T00831014  RH  051%=      5-min Rain = 0
KMCS 161505Z 26011KT 09/M01 A2996 RMK A01 T00871013  RH  050%=      5-min Rain = 0
KMCS 161510Z 26012KT 09/M01 A2996 RMK A01 T00891012  RH  050%=      5-min Rain = 0
KMCS 161515Z 26011KT 09/M01 A2996 RMK A01 T00921012  RH  049%=      5-min Rain = 0
KMCS 161520Z 26009KT 10/M01 A2996 RMK A01 T00951010  RH  049%=      5-min Rain = 0
KMCS 161525Z 27010KT 10/M01 A2997 RMK A01 T00971012  RH  047%=      5-min Rain = 0
KMCS 161530Z 26012G17KT 10/M02 A2997 RMK A01 T00971016  RH  046%=      5-min Rain = 0
KMCS 161535Z 27011G17KT 10/M02 A2996 RMK A01 T00981015  RH  046%=      5-min Rain = 0
KMCS 161540Z 27010KT 10/M01 A2996 RMK A01 T01001012  RH  046%=      5-min Rain = 0
KMCS 161545Z 27012KT 10/M02 A2996 RMK A01 T01011015  RH  045%=      5-min Rain = 0
KMCS 161550Z 27012KT 10/M02 A2996 RMK A01 T01031015  RH  044%=      5-min Rain = 0
KMCS 161555Z 27010KT 11/M01 A2996 RMK A01 T01061010  RH  045%=      5-min Rain = 0
KMCS 161600Z 28010KT 11/M01 A2996 RMK A01 T01071007  RH  045%=      5-min Rain = 0
KMCS 161605Z 28011KT 11/M01 A2996 RMK A01 T01101005  RH  045%=      5-min Rain = 0
KMCS 161610Z 28012KT 11/M01 A2996 RMK A01 T01131006  RH  044%=      5-min Rain = 0
KMCS 161615Z 28011KT 12/M01 A2996 RMK A01 T01151005  RH  044%=      5-min Rain = 0
KMCS 161620Z 27010KT 12/M00 A2996 RMK A01 T01181004  RH  043%=      5-min Rain = 0
KMCS 161625Z 28010KT 12/M00 A2996 RMK A01 T01201004  RH  043%=      5-min Rain = 0
KMCS 161630Z 27009KT 12/M00 A2996 RMK A01 T01231001  RH  043%=      5-min Rain = 0
KMCS 161635Z 27008KT 13/00 A2996 RMK A01 T01270001  RH  043%=      5-min Rain = 0
KMCS 161640Z 26010KT 13/M00 A2996 RMK A01 T01301002  RH  041%=      5-min Rain = 0
KMCS 161645Z 26010KT 13/M00 A2996 RMK A01 T01331001  RH  040%=      5-min Rain = 0
KMCS 161650Z 25010KT 14/00 A2996 RMK A01 T013500-0  RH  040%=      5-min Rain = 0
KMCS 161655Z 25011KT 14/00 A2995 RMK A01 T01380002  RH  040%=      5-min Rain = 0
KMCS 161700Z 24011KT 14/00 A2995 RMK A01 T01410000  RH  039%=      5-min Rain = 0
KMCS 161705Z 24009KT 15/01 A2995 RMK A01 T01460006  RH  039%=      5-min Rain = 0
KMCS 161710Z 23009KT 15/00 A2995 RMK A01 T01480003  RH  038%=      5-min Rain = 0
KMCS 161715Z 23009G14KT 15/M00 A2995 RMK A01 T01521001  RH  036%=      5-min Rain = 0
KMCS 161720Z 22013KT 16/M00 A2995 RMK A01 T01551004  RH  034%=      5-min Rain = 0
KMCS 161725Z 23012KT 16/M00 A2995 RMK A01 T01551003  RH  034%=      5-min Rain = 0
KMCS 161730Z 23011KT 16/00 A2994 RMK A01 T01580004  RH  036%=      5-min Rain = 0
KMCS 161735Z 22011G16KT 16/00 A2994 RMK A01 T01580004  RH  035%=      5-min Rain = 0
KMCS 161740Z 23011KT 16/M00 A2994 RMK A01 T01561003  RH  034%=      5-min Rain = 0
KMCS 161745Z 23012KT 16/00 A2994 RMK A01 T01590000  RH  034%=      5-min Rain = 0
KMCS 161750Z 23010KT 16/00 A2994 RMK A01 T015900-0  RH  034%=      5-min Rain = 0
KMCS 161755Z 22011G16KT 16/01 A2993 RMK A01 T01610005  RH  035%=      5-min Rain = 0
KMCS 161800Z 22014KT 16/M00 A2993 RMK A01 T01601002  RH  034%=      5-min Rain = 0
KMCS 161805Z 21012KT 16/M00 A2993 RMK A01 T01621002  RH  033%=      5-min Rain = 0
KMCS 161810Z 21013G19KT 17/M00 A2993 RMK A01 T01651002  RH  032%=      5-min Rain = 0
KMCS 161815Z 22012G18KT 17/M01 A2992 RMK A01 T01651006  RH  032%=      5-min Rain = 0
KMCS 161820Z 22014G19KT 17/M01 A2992 RMK A01 T01661008  RH  031%=      5-min Rain = 0
KMCS 161825Z 23012G18KT 17/M01 A2992 RMK A01 T01671009  RH  030%=      5-min Rain = 0
KMCS 161830Z 21013G18KT 17/M02 A2992 RMK A01 T01681015  RH  029%=      5-min Rain = 0
KMCS 161835Z 22012G17KT 17/M01 A2991 RMK A01 T01681011  RH  030%=      5-min Rain = 0
KMCS 161840Z 21014G19KT 17/M01 A2991 RMK A01 T01701014  RH  029%=      5-min Rain = 0
KMCS 161845Z 23013G18KT 17/M01 A2991 RMK A01 T01691014  RH  029%=      5-min Rain = 0
KMCS 161850Z 21011G16KT 17/M01 A2991 RMK A01 T01701006  RH  031%=      5-min Rain = 0
KMCS 161855Z 22013G18KT 17/M01 A299 RMK A01 T01731012  RH  029%=      5-min Rain = 0
KMCS 161900Z 23012KT 17/M01 A299 RMK A01 T01741013  RH  028%=      5-min Rain = 0
KMCS 161905Z 21012G18KT 17/M01 A299 RMK A01 T01731012  RH  029%=      5-min Rain = 0
KMCS 161910Z 21011KT 18/M00 A299 RMK A01 T01761002  RH  030%=      5-min Rain = 0
KMCS 161915Z 21012G17KT 18/M01 A2989 RMK A01 T01761006  RH  030%=      5-min Rain = 0
KMCS 161920Z 21012KT 18/M01 A2989 RMK A01 T01761005  RH  030%=      5-min Rain = 0
KMCS 161925Z 21013KT 18/M00 A2989 RMK A01 T01791002  RH  030%=      5-min Rain = 0
KMCS 161930Z 22012G19KT 18/M01 A2989 RMK A01 T01771008  RH  029%=      5-min Rain = 0
KMCS 161935Z 21013G18KT 18/M00 A2988 RMK A01 T01771004  RH  030%=      5-min Rain = 0
KMCS 161940Z 22013KT 18/M01 A2988 RMK A01 T01771009  RH  029%=      5-min Rain = 0
KMCS 161945Z 21014KT 18/M01 A2988 RMK A01 T01791009  RH  028%=      5-min Rain = 0
KMCS 161950Z 22013G18KT 18/M01 A2988 RMK A01 T01781012  RH  028%=      5-min Rain = 0
KMCS 161955Z 20014G19KT 18/M01 A2988 RMK A01 T01791010  RH  028%=      5-min Rain = 0
KMCS 162000Z 21015G21KT 18/M01 A2987 RMK A01 T01801008  RH  028%=      5-min Rain = 0
KMCS 162005Z 20011KT 18/M01 A2987 RMK A01 T01791008  RH  028%=      5-min Rain = 0
KMCS 162010Z 20013G19KT 18/M01 A2987 RMK A01 T01821008  RH  028%=      5-min Rain = 0
KMCS 162015Z 19013G18KT 18/M01 A2987 RMK A01 T01831012  RH  027%=      5-min Rain = 0
KMCS 162020Z 21014KT 18/M02 A2986 RMK A01 T01811017  RH  026%=      5-min Rain = 0
KMCS 162025Z 20013G18KT 18/M01 A2986 RMK A01 T01821009  RH  028%=      5-min Rain = 0
KMCS 162030Z 22014G20KT 19/M01 A2986 RMK A01 T01861008  RH  027%=      5-min Rain = 0
KMCS 162035Z 19013KT 19/M02 A2986 RMK A01 T01851018  RH  025%=      5-min Rain = 0
KMCS 162040Z 20016KT 18/M02 A2986 RMK A01 T01841019  RH  025%=      5-min Rain = 0
KMCS 162045Z 20012G19KT 19/M02 A2986 RMK A01 T01851015  RH  026%=      5-min Rain = 0
KMCS 162050Z 20014G19KT 19/M02 A2985 RMK A01 T01871023  RH  024%=      5-min Rain = 0
KMCS 162055Z 20014KT 19/M02 A2985 RMK A01 T01881016  RH  025%=      5-min Rain = 0
KMCS 162100Z 20014G20KT 19/M02 A2985 RMK A01 T01871016  RH  026%=      5-min Rain = 0
KMCS 162105Z 19013G19KT 19/M01 A2985 RMK A01 T01871012  RH  026%=      5-min Rain = 0
KMCS 162110Z 20013G22KT 19/M02 A2985 RMK A01 T01891016  RH  025%=      5-min Rain = 0
KMCS 162115Z 19012G17KT 19/M01 A2985 RMK A01 T01891011  RH  026%=      5-min Rain = 0
KMCS 162120Z 19012KT 19/M01 A2985 RMK A01 T01911012  RH  026%=      5-min Rain = 0
KMCS 162125Z 19013G18KT 19/M02 A2985 RMK A01 T01901015  RH  025%=      5-min Rain = 0
KMCS 162130Z 19015G21KT 19/M02 A2984 RMK A01 T01901017  RH  025%=      5-min Rain = 0
KMCS 162135Z 19014G19KT 19/M01 A2984 RMK A01 T01881014  RH  026%=      5-min Rain = 0
KMCS 162140Z 19013KT 19/M01 A2984 RMK A01 T01891012  RH  026%=      5-min Rain = 0
KMCS 162145Z 19013KT 19/M01 A2984 RMK A01 T01901012  RH  026%=      5-min Rain = 0
KMCS 162150Z 18015KT 19/M02 A2984 RMK A01 T01901016  RH  025%=      5-min Rain = 0
KMCS 162155Z 19014G21KT 19/M01 A2984 RMK A01 T01891013  RH  026%=      5-min Rain = 0
KMCS 162200Z 19014G20KT 19/M01 A2984 RMK A01 T01901014  RH  025%=      5-min Rain = 0
KMCS 162205Z 18014G19KT 19/M02 A2983 RMK A01 T01911018  RH  024%=      5-min Rain = 0
KMCS 162210Z 19015G20KT 19/M02 A2983 RMK A01 T01891015  RH  025%=      5-min Rain = 0
KMCS 162215Z 18014G19KT 19/M02 A2983 RMK A01 T01891019  RH  025%=      5-min Rain = 0
KMCS 162220Z 18013KT 19/M02 A2983 RMK A01 T01891015  RH  025%=      5-min Rain = 0
KMCS 162225Z 19015G20KT 19/M02 A2983 RMK A01 T01891018  RH  025%=      5-min Rain = 0
KMCS 162230Z 20013G19KT 19/M03 A2983 RMK A01 T01881025  RH  024%=      5-min Rain = 0
KMCS 162235Z 20016G22KT 19/M02 A2982 RMK A01 T01861016  RH  026%=      5-min Rain = 0
KMCS 162240Z 19016KT 19/M02 A2983 RMK A01 T01851017  RH  026%=      5-min Rain = 0
KMCS 162245Z 18015KT 19/M01 A2983 RMK A01 T01851013  RH  026%=      5-min Rain = 0
KMCS 162250Z 19013KT 18/M01 A2983 RMK A01 T01841009  RH  027%=      5-min Rain = 0
KMCS 162255Z 19014KT 18/M01 A2983 RMK A01 T01831009  RH  028%=      5-min Rain = 0
KMCS 162300Z 18014KT 18/M01 A2982 RMK A01 T01821008  RH  028%=      5-min Rain = 0
KMCS 162305Z 19013KT 18/M01 A2982 RMK A01 T01821008  RH  028%=      5-min Rain = 0
KMCS 162310Z 20013G19KT 18/M01 A2982 RMK A01 T01821006  RH  028%=      5-min Rain = 0
KMCS 162315Z 20012KT 18/M01 A2982 RMK A01 T01811007  RH  028%=      5-min Rain = 0
KMCS 162320Z 18013G19KT 18/M01 A2982 RMK A01 T01791010  RH  028%=      5-min Rain = 0
KMCS 162325Z 19013G18KT 18/M01 A2982 RMK A01 T01771008  RH  029%=      5-min Rain = 0
KMCS 162330Z 19014KT 18/M01 A2982 RMK A01 T01761008  RH  029%=      5-min Rain = 0
KMCS 162335Z 19013KT 17/M00 A2982 RMK A01 T01741004  RH  030%=      5-min Rain = 0
KMCS 162340Z 19012KT 17/00 A2982 RMK A01 T01710001  RH  032%=      5-min Rain = 0
KMCS 162345Z 20012G18KT 17/00 A2982 RMK A01 T016900-0  RH  032%=      5-min Rain = 0
KMCS 162350Z 19013KT 17/M00 A2982 RMK A01 T01651001  RH  033%=      5-min Rain = 0
KMCS 162355Z 19012KT 16/M00 A2982 RMK A01 T01631001  RH  033%=      5-min Rain = 0
KMCS 170000Z 19010KT 16/00 A2982 RMK A01 T01590001  RH  035%=      5-min Rain = 0
KMCS 170005Z 19012KT 16/M00 A2982 RMK A01 T01571003  RH  034%=      5-min Rain = 0
KMCS 170010Z 19011KT 15/M01 A2982 RMK A01 T01541006  RH  034%=      5-min Rain = 0
KMCS 170015Z 19010KT 15/M01 A2982 RMK A01 T01491006  RH  035%=      5-min Rain = 0
KMCS 170020Z 19009KT 14/M01 A2982 RMK A01 T01431006  RH  036%=      5-min Rain = 0
KMCS 170025Z 19009KT 14/M01 A2982 RMK A01 T01391006  RH  037%=      5-min Rain = 0
KMCS 170030Z 18010KT 14/M01 A2982 RMK A01 T01351005  RH  039%=      5-min Rain = 0
KMCS 170035Z 18011KT 13/00 A2982 RMK A01 T01340002  RH  041%=      5-min Rain = 0
KMCS 170040Z 18011KT 13/01 A2982 RMK A01 T01310006  RH  043%=      5-min Rain = 0
KMCS 170045Z 18010KT 13/01 A2982 RMK A01 T01260009  RH  045%=      5-min Rain = 0
KMCS 170050Z 18010KT 12/01 A2982 RMK A01 T01240009  RH  046%=      5-min Rain = 0
KMCS 170055Z 18009KT 12/01 A2982 RMK A01 T01210008  RH  046%=      5-min Rain = 0
KMCS 170100Z 18008KT 12/01 A2982 RMK A01 T01170008  RH  048%=      5-min Rain = 0
KMCS 170105Z 18007KT 12/01 A2982 RMK A01 T01150008  RH  048%=      5-min Rain = 0
KMCS 170110Z 18007KT 11/01 A2982 RMK A01 T01130007  RH  049%=      5-min Rain = 0
KMCS 170115Z 17006KT 11/01 A2982 RMK A01 T01090006  RH  049%=      5-min Rain = 0
KMCS 170120Z 17007KT 11/01 A2983 RMK A01 T01080005  RH  050%=      5-min Rain = 0
KMCS 170125Z 17008KT 11/01 A2983 RMK A01 T01070006  RH  050%=      5-min Rain = 0
KMCS 170130Z 17008KT 11/01 A2983 RMK A01 T01050005  RH  051%=      5-min Rain = 0
KMCS 170135Z 18008KT 10/01 A2982 RMK A01 T01030006  RH  052%=      5-min Rain = 0
KMCS 170140Z 18008KT 10/01 A2982 RMK A01 T01000007  RH  053%=      5-min Rain = 0
KMCS 170145Z 18008KT 10/01 A2982 RMK A01 T00980007  RH  054%=      5-min Rain = 0
KMCS 170150Z 18008KT 10/01 A2982 RMK A01 T00970008  RH  054%=      5-min Rain = 0
KMCS 170155Z 18009KT 10/01 A2982 RMK A01 T00960008  RH  055%=      5-min Rain = 0
KMCS 170200Z 18009KT 09/01 A2982 RMK A01 T00930009  RH  057%=      5-min Rain = 0
KMCS 170205Z 18009KT 09/01 A2982 RMK A01 T00900009  RH  058%=      5-min Rain = 0
KMCS 170210Z 18009KT 09/01 A2982 RMK A01 T00900009  RH  058%=      5-min Rain = 0
KMCS 170215Z 18009KT 09/01 A2982 RMK A01 T00880009  RH  058%=      5-min Rain = 0
KMCS 170220Z 18009KT 09/01 A2982 RMK A01 T00880008  RH  058%=      5-min Rain = 0
KMCS 170225Z 18009KT 09/01 A2982 RMK A01 T00870009  RH  058%=      5-min Rain = 0
KMCS 170230Z 18009KT 09/01 A2982 RMK A01 T00870010  RH  059%=      5-min Rain = 0
KMCS 170235Z 18009KT 09/01 A2982 RMK A01 T00860011  RH  060%=      5-min Rain = 0
KMCS 170240Z 18010KT 09/01 A2982 RMK A01 T00870011  RH  059%=      5-min Rain = 0
KMCS 170245Z 19010KT 09/01 A2982 RMK A01 T00890011  RH  059%=      5-min Rain = 0
KMCS 170250Z 19009KT 09/01 A2981 RMK A01 T00900011  RH  058%=      5-min Rain = 0
KMCS 170255Z 19009KT 09/01 A2981 RMK A01 T00900011  RH  058%=      5-min Rain = 0
KMCS 170300Z 19009KT 09/01 A2981 RMK A01 T00890011  RH  059%=      5-min Rain = 0
KMCS 170305Z 19009KT 09/01 A2981 RMK A01 T00880011  RH  059%=      5-min Rain = 0
KMCS 170310Z 19008KT 09/01 A2982 RMK A01 T00870012  RH  060%=      5-min Rain = 0
KMCS 170315Z 20008KT 09/01 A2982 RMK A01 T00860012  RH  060%=      5-min Rain = 0
KMCS 170320Z 20007KT 09/01 A2982 RMK A01 T00850011  RH  061%=      5-min Rain = 0
KMCS 170325Z 21007KT 08/01 A2982 RMK A01 T00840011  RH  061%=      5-min Rain = 0
KMCS 170330Z 21006KT 08/01 A2982 RMK A01 T00830010  RH  061%=      5-min Rain = 0
KMCS 170335Z 21005KT 09/01 A2982 RMK A01 T00850010  RH  060%=      5-min Rain = 0
KMCS 170340Z 22004KT 09/01 A2982 RMK A01 T00850010  RH  060%=      5-min Rain = 0
KMCS 170345Z 22004KT 09/01 A2982 RMK A01 T00850010  RH  060%=      5-min Rain = 0
KMCS 170350Z 22004KT 09/01 A2982 RMK A01 T00850009  RH  059%=      5-min Rain = 0
KMCS 170355Z 21004KT 09/01 A2982 RMK A01 T00850009  RH  060%=      5-min Rain = 0
KMCS 170400Z 21005KT 09/01 A2982 RMK A01 T00850009  RH  060%=      5-min Rain = 0
KMCS 170405Z 21005KT 09/01 A2982 RMK A01 T00860009  RH  059%=      5-min Rain = 0
KMCS 170410Z 21005KT 09/01 A2982 RMK A01 T00850009  RH  059%=      5-min Rain = 0
KMCS 170415Z 20006KT 08/01 A2982 RMK A01 T00810008  RH  061%=      5-min Rain = 0
KMCS 170420Z 20006KT 08/01 A2982 RMK A01 T00770008  RH  062%=      5-min Rain = 0
KMCS 170425Z 20007KT 08/01 A2982 RMK A01 T00760008  RH  063%=      5-min Rain = 0
KMCS 170430Z 20007KT 07/01 A2982 RMK A01 T00720007  RH  064%=      5-min Rain = 0
KMCS 170435Z 19007KT 07/01 A2982 RMK A01 T00680006  RH  066%=      5-min Rain = 0
KMCS 170440Z 19007KT 07/01 A2982 RMK A01 T00660006  RH  066%=      5-min Rain = 0
KMCS 170445Z 20006KT 07/01 A2982 RMK A01 T00670007  RH  066%=      5-min Rain = 0
KMCS 170450Z 21005KT 07/01 A2982 RMK A01 T00700007  RH  065%=      5-min Rain = 0
KMCS 170455Z 22005KT 07/01 A2981 RMK A01 T00710007  RH  064%=      5-min Rain = 0
KMCS 170500Z 22005KT 07/01 A2981 RMK A01 T00690007  RH  065%=      5-min Rain = 0
KMCS 170505Z 21006KT 07/01 A2981 RMK A01 T00680007  RH  066%=      5-min Rain = 0
KMCS 170510Z 21006KT 07/01 A2981 RMK A01 T00660008  RH  067%=      5-min Rain = 0
KMCS 170515Z 21006KT 06/01 A2981 RMK A01 T00640008  RH  068%=      5-min Rain = 0
KMCS 170520Z 21007KT 06/01 A2981 RMK A01 T00630007  RH  068%=      5-min Rain = 0
KMCS 170525Z 21008KT 06/01 A2981 RMK A01 T00610006  RH  068%=      5-min Rain = 0
KMCS 170530Z 21008KT 06/01 A298 RMK A01 T00620005  RH  068%=      5-min Rain = 0
KMCS 170535Z 21008KT 06/01 A298 RMK A01 T00620005  RH  068%=      5-min Rain = 0
KMCS 170540Z 21007KT 06/00 A298 RMK A01 T00630004  RH  067%=      5-min Rain = 0
KMCS 170545Z 21007KT 06/00 A298 RMK A01 T00610004  RH  067%=      5-min Rain = 0
KMCS 170550Z 20007KT 06/00 A298 RMK A01 T00600003  RH  068%=      5-min Rain = 0
KMCS 170555Z 20007KT 06/00 A2979 RMK A01 T00590002  RH  068%=      5-min Rain = 0

Page generated in 0.01 seconds.